sensor_id;sensor_type;location;lat;lon;timestamp;temperature;humidity
23499;DHT22;11926;48.120;11.562;2022-09-09T00:02:29;16.90;90.00
23499;DHT22;11926;48.120;11.562;2022-09-09T00:05:22;16.90;90.00
23499;DHT22;11926;48.120;11.562;2022-09-09T00:08:17;16.80;90.00
23499;DHT22;11926;48.120;11.562;2022-09-09T00:11:06;16.80;90.10
23499;DHT22;11926;48.120;11.562;2022-09-09T00:13:57;16.80;90.10
23499;DHT22;11926;48.120;11.562;2022-09-09T00:16:52;16.70;90.10
23499;DHT22;11926;48.120;11.562;2022-09-09T00:19:46;16.70;90.20
23499;DHT22;11926;48.120;11.562;2022-09-09T00:22:36;16.70;90.30
23499;DHT22;11926;48.120;11.562;2022-09-09T00:25:31;16.70;90.40
23499;DHT22;11926;48.120;11.562;2022-09-09T00:28:23;16.70;90.40
23499;DHT22;11926;48.120;11.562;2022-09-09T00:31:15;16.70;90.50
23499;DHT22;11926;48.120;11.562;2022-09-09T00:34:11;16.60;90.50
23499;DHT22;11926;48.120;11.562;2022-09-09T00:36:59;16.60;90.60
23499;DHT22;11926;48.120;11.562;2022-09-09T00:39:48;16.70;90.70
23499;DHT22;11926;48.120;11.562;2022-09-09T00:42:41;16.60;90.70
23499;DHT22;11926;48.120;11.562;2022-09-09T00:45:43;16.60;90.70
23499;DHT22;11926;48.120;11.562;2022-09-09T00:48:40;16.70;90.80
23499;DHT22;11926;48.120;11.562;2022-09-09T00:51:40;16.60;90.80
23499;DHT22;11926;48.120;11.562;2022-09-09T00:54:40;16.60;90.80
23499;DHT22;11926;48.120;11.562;2022-09-09T00:57:33;16.60;90.80
23499;DHT22;11926;48.120;11.562;2022-09-09T01:00:23;16.60;90.90
23499;DHT22;11926;48.120;11.562;2022-09-09T01:03:20;16.60;90.90
23499;DHT22;11926;48.120;11.562;2022-09-09T01:06:15;16.60;90.90
23499;DHT22;11926;48.120;11.562;2022-09-09T01:09:13;16.50;91.00
23499;DHT22;11926;48.120;11.562;2022-09-09T01:12:09;16.60;91.10
23499;DHT22;11926;48.120;11.562;2022-09-09T01:15:08;16.50;91.10
23499;DHT22;11926;48.120;11.562;2022-09-09T01:18:06;16.50;91.30
23499;DHT22;11926;48.120;11.562;2022-09-09T01:21:06;16.50;91.30
23499;DHT22;11926;48.120;11.562;2022-09-09T01:24:18;16.50;91.40
23499;DHT22;11926;48.120;11.562;2022-09-09T01:27:18;16.50;91.40
23499;DHT22;11926;48.120;11.562;2022-09-09T01:30:10;16.50;91.50
23499;DHT22;11926;48.120;11.562;2022-09-09T01:32:58;16.50;91.40
23499;DHT22;11926;48.120;11.562;2022-09-09T01:35:50;16.50;91.50
23499;DHT22;11926;48.120;11.562;2022-09-09T01:38:44;16.50;91.60
23499;DHT22;11926;48.120;11.562;2022-09-09T01:41:32;16.50;91.70
23499;DHT22;11926;48.120;11.562;2022-09-09T01:44:25;16.50;91.60
23499;DHT22;11926;48.120;11.562;2022-09-09T01:47:13;16.50;91.60
23499;DHT22;11926;48.120;11.562;2022-09-09T01:50:17;16.50;91.60
23499;DHT22;11926;48.120;11.562;2022-09-09T01:53:05;16.50;91.60
23499;DHT22;11926;48.120;11.562;2022-09-09T01:56:08;16.50;91.70
23499;DHT22;11926;48.120;11.562;2022-09-09T01:59:08;16.50;91.60
23499;DHT22;11926;48.120;11.562;2022-09-09T02:02:09;16.50;91.80
23499;DHT22;11926;48.120;11.562;2022-09-09T02:05:12;16.50;91.80
23499;DHT22;11926;48.120;11.562;2022-09-09T02:08:06;16.50;91.80
23499;DHT22;11926;48.120;11.562;2022-09-09T02:11:07;16.50;91.80
23499;DHT22;11926;48.120;11.562;2022-09-09T02:14:04;16.50;91.80
23499;DHT22;11926;48.120;11.562;2022-09-09T02:16:55;16.40;91.70
23499;DHT22;11926;48.120;11.562;2022-09-09T02:20:02;16.40;91.70
23499;DHT22;11926;48.120;11.562;2022-09-09T02:22:59;16.40;91.80
23499;DHT22;11926;48.120;11.562;2022-09-09T02:25:50;16.40;91.80
23499;DHT22;11926;48.120;11.562;2022-09-09T02:28:41;16.30;91.80
23499;DHT22;11926;48.120;11.562;2022-09-09T02:31:30;16.30;91.90
23499;DHT22;11926;48.120;11.562;2022-09-09T02:34:27;16.40;92.00
23499;DHT22;11926;48.120;11.562;2022-09-09T02:37:20;16.40;92.10
23499;DHT22;11926;48.120;11.562;2022-09-09T02:40:13;16.40;92.20
23499;DHT22;11926;48.120;11.562;2022-09-09T02:43:06;16.40;92.20
23499;DHT22;11926;48.120;11.562;2022-09-09T02:46:04;16.40;92.20
23499;DHT22;11926;48.120;11.562;2022-09-09T02:48:59;16.40;92.00
23499;DHT22;11926;48.120;11.562;2022-09-09T02:51:55;16.40;92.00
23499;DHT22;11926;48.120;11.562;2022-09-09T02:54:52;16.40;92.00
23499;DHT22;11926;48.120;11.562;2022-09-09T02:57:43;16.40;92.00
23499;DHT22;11926;48.120;11.562;2022-09-09T03:00:35;16.40;92.10
23499;DHT22;11926;48.120;11.562;2022-09-09T03:03:23;16.40;92.00
23499;DHT22;11926;48.120;11.562;2022-09-09T03:06:11;16.40;92.10
23499;DHT22;11926;48.120;11.562;2022-09-09T03:08:58;16.40;92.10
23499;DHT22;11926;48.120;11.562;2022-09-09T03:11:50;16.40;92.40
23499;DHT22;11926;48.120;11.562;2022-09-09T03:14:39;16.40;91.90
23499;DHT22;11926;48.120;11.562;2022-09-09T03:17:26;16.40;91.90
23499;DHT22;11926;48.120;11.562;2022-09-09T03:20:15;16.40;92.00
23499;DHT22;11926;48.120;11.562;2022-09-09T03:23:03;16.40;92.00
23499;DHT22;11926;48.120;11.562;2022-09-09T03:25:50;16.40;91.90
23499;DHT22;11926;48.120;11.562;2022-09-09T03:28:47;16.40;91.90
23499;DHT22;11926;48.120;11.562;2022-09-09T03:31:37;16.40;92.00
23499;DHT22;11926;48.120;11.562;2022-09-09T03:34:24;16.40;91.90
23499;DHT22;11926;48.120;11.562;2022-09-09T03:37:11;16.40;91.90
23499;DHT22;11926;48.120;11.562;2022-09-09T03:39:58;16.40;91.90
23499;DHT22;11926;48.120;11.562;2022-09-09T03:42:47;16.40;91.90
23499;DHT22;11926;48.120;11.562;2022-09-09T03:45:36;16.30;91.90
23499;DHT22;11926;48.120;11.562;2022-09-09T03:48:24;16.30;91.90
23499;DHT22;11926;48.120;11.562;2022-09-09T03:51:14;16.30;92.00
23499;DHT22;11926;48.120;11.562;2022-09-09T03:54:02;16.30;92.00
23499;DHT22;11926;48.120;11.562;2022-09-09T03:56:50;16.30;92.10
23499;DHT22;11926;48.120;11.562;2022-09-09T03:59:40;16.30;92.10
23499;DHT22;11926;48.120;11.562;2022-09-09T04:02:29;16.30;92.10
23499;DHT22;11926;48.120;11.562;2022-09-09T04:05:16;16.30;92.10
23499;DHT22;11926;48.120;11.562;2022-09-09T04:08:06;16.30;92.20
23499;DHT22;11926;48.120;11.562;2022-09-09T04:10:54;16.30;92.20
23499;DHT22;11926;48.120;11.562;2022-09-09T04:13:45;16.30;92.20
23499;DHT22;11926;48.120;11.562;2022-09-09T04:16:32;16.30;92.30
23499;DHT22;11926;48.120;11.562;2022-09-09T04:19:22;16.30;92.20
23499;DHT22;11926;48.120;11.562;2022-09-09T04:22:09;16.30;92.30
23499;DHT22;11926;48.120;11.562;2022-09-09T04:24:56;16.30;92.30
23499;DHT22;11926;48.120;11.562;2022-09-09T04:27:43;16.30;92.40
23499;DHT22;11926;48.120;11.562;2022-09-09T04:30:30;16.40;92.30
23499;DHT22;11926;48.120;11.562;2022-09-09T04:33:17;16.40;92.40
23499;DHT22;11926;48.120;11.562;2022-09-09T04:36:08;16.40;92.30
23499;DHT22;11926;48.120;11.562;2022-09-09T04:38:55;16.40;92.30
23499;DHT22;11926;48.120;11.562;2022-09-09T04:41:43;16.40;92.30
23499;DHT22;11926;48.120;11.562;2022-09-09T04:44:30;16.30;92.20
23499;DHT22;11926;48.120;11.562;2022-09-09T04:47:18;16.30;92.20
23499;DHT22;11926;48.120;11.562;2022-09-09T04:50:05;16.30;92.10
23499;DHT22;11926;48.120;11.562;2022-09-09T04:52:54;16.30;92.20
23499;DHT22;11926;48.120;11.562;2022-09-09T04:55:41;16.20;92.20
23499;DHT22;11926;48.120;11.562;2022-09-09T04:58:28;16.20;92.20
23499;DHT22;11926;48.120;11.562;2022-09-09T05:01:18;16.20;92.30
23499;DHT22;11926;48.120;11.562;2022-09-09T05:04:07;16.20;92.30
23499;DHT22;11926;48.120;11.562;2022-09-09T05:06:55;16.20;92.30
23499;DHT22;11926;48.120;11.562;2022-09-09T05:09:43;16.20;92.40
23499;DHT22;11926;48.120;11.562;2022-09-09T05:12:31;16.20;92.40
23499;DHT22;11926;48.120;11.562;2022-09-09T05:15:18;16.20;92.40
23499;DHT22;11926;48.120;11.562;2022-09-09T05:18:07;16.20;92.40
23499;DHT22;11926;48.120;11.562;2022-09-09T05:20:59;16.20;92.50
23499;DHT22;11926;48.120;11.562;2022-09-09T05:23:49;16.20;92.40
23499;DHT22;11926;48.120;11.562;2022-09-09T05:26:39;16.10;92.40
23499;DHT22;11926;48.120;11.562;2022-09-09T05:29:26;16.10;92.50
23499;DHT22;11926;48.120;11.562;2022-09-09T05:32:15;16.10;92.50
23499;DHT22;11926;48.120;11.562;2022-09-09T05:35:06;16.10;92.60
23499;DHT22;11926;48.120;11.562;2022-09-09T05:37:53;16.10;92.60
23499;DHT22;11926;48.120;11.562;2022-09-09T05:40:47;16.10;92.60
23499;DHT22;11926;48.120;11.562;2022-09-09T05:43:38;16.10;92.70
23499;DHT22;11926;48.120;11.562;2022-09-09T05:46:25;16.10;92.70
23499;DHT22;11926;48.120;11.562;2022-09-09T05:49:13;16.10;92.90
23499;DHT22;11926;48.120;11.562;2022-09-09T05:52:02;16.20;92.90
23499;DHT22;11926;48.120;11.562;2022-09-09T05:54:50;16.20;93.00
23499;DHT22;11926;48.120;11.562;2022-09-09T05:57:37;16.20;92.90
23499;DHT22;11926;48.120;11.562;2022-09-09T06:00:26;16.20;93.10
23499;DHT22;11926;48.120;11.562;2022-09-09T06:03:13;16.20;92.80
23499;DHT22;11926;48.120;11.562;2022-09-09T06:06:05;16.30;93.00
23499;DHT22;11926;48.120;11.562;2022-09-09T06:08:54;16.30;92.90
23499;DHT22;11926;48.120;11.562;2022-09-09T06:11:45;16.30;92.90
23499;DHT22;11926;48.120;11.562;2022-09-09T06:14:33;16.30;92.70
23499;DHT22;11926;48.120;11.562;2022-09-09T06:17:22;16.40;92.60
23499;DHT22;11926;48.120;11.562;2022-09-09T06:20:09;16.40;92.40
23499;DHT22;11926;48.120;11.562;2022-09-09T06:22:58;16.40;92.30
23499;DHT22;11926;48.120;11.562;2022-09-09T06:25:45;16.50;92.20
23499;DHT22;11926;48.120;11.562;2022-09-09T06:28:33;16.50;92.00
23499;DHT22;11926;48.120;11.562;2022-09-09T06:31:22;16.60;92.00
23499;DHT22;11926;48.120;11.562;2022-09-09T06:34:17;16.60;91.80
23499;DHT22;11926;48.120;11.562;2022-09-09T06:37:08;16.60;91.80
23499;DHT22;11926;48.120;11.562;2022-09-09T06:40:01;16.60;91.70
23499;DHT22;11926;48.120;11.562;2022-09-09T06:42:49;16.60;91.80
23499;DHT22;11926;48.120;11.562;2022-09-09T06:45:43;16.70;91.70
23499;DHT22;11926;48.120;11.562;2022-09-09T06:48:30;16.70;91.60
23499;DHT22;11926;48.120;11.562;2022-09-09T06:51:21;16.80;91.60
23499;DHT22;11926;48.120;11.562;2022-09-09T06:54:08;16.80;91.50
23499;DHT22;11926;48.120;11.562;2022-09-09T06:56:56;16.90;91.60
23499;DHT22;11926;48.120;11.562;2022-09-09T06:59:49;16.90;91.50
23499;DHT22;11926;48.120;11.562;2022-09-09T07:02:38;17.00;91.50
23499;DHT22;11926;48.120;11.562;2022-09-09T07:05:28;17.00;91.40
23499;DHT22;11926;48.120;11.562;2022-09-09T07:08:16;17.10;91.30
23499;DHT22;11926;48.120;11.562;2022-09-09T07:11:05;17.10;91.20
23499;DHT22;11926;48.120;11.562;2022-09-09T07:14:00;17.20;91.20
23499;DHT22;11926;48.120;11.562;2022-09-09T07:16:48;17.20;91.10
23499;DHT22;11926;48.120;11.562;2022-09-09T07:19:36;17.30;91.20
23499;DHT22;11926;48.120;11.562;2022-09-09T07:22:24;17.30;91.20
23499;DHT22;11926;48.120;11.562;2022-09-09T07:25:13;17.30;91.20
23499;DHT22;11926;48.120;11.562;2022-09-09T07:28:02;17.30;91.10
23499;DHT22;11926;48.120;11.562;2022-09-09T07:30:54;17.40;91.50
23499;DHT22;11926;48.120;11.562;2022-09-09T07:33:41;17.40;91.20
23499;DHT22;11926;48.120;11.562;2022-09-09T07:36:31;17.40;91.20
23499;DHT22;11926;48.120;11.562;2022-09-09T07:39:19;17.50;91.20
23499;DHT22;11926;48.120;11.562;2022-09-09T07:42:12;17.50;91.20
23499;DHT22;11926;48.120;11.562;2022-09-09T07:45:00;17.60;91.30
23499;DHT22;11926;48.120;11.562;2022-09-09T07:47:47;17.60;91.10
23499;DHT22;11926;48.120;11.562;2022-09-09T07:50:36;17.70;91.00
23499;DHT22;11926;48.120;11.562;2022-09-09T07:53:24;17.80;91.00
23499;DHT22;11926;48.120;11.562;2022-09-09T07:56:13;17.80;90.90
23499;DHT22;11926;48.120;11.562;2022-09-09T07:59:03;17.90;90.70
23499;DHT22;11926;48.120;11.562;2022-09-09T08:01:53;18.00;90.60
23499;DHT22;11926;48.120;11.562;2022-09-09T08:04:45;18.00;90.60
23499;DHT22;11926;48.120;11.562;2022-09-09T08:07:35;18.10;90.50
23499;DHT22;11926;48.120;11.562;2022-09-09T08:10:23;18.10;90.40
23499;DHT22;11926;48.120;11.562;2022-09-09T08:13:12;18.20;90.40
23499;DHT22;11926;48.120;11.562;2022-09-09T08:16:08;18.30;90.30
23499;DHT22;11926;48.120;11.562;2022-09-09T08:18:55;18.30;90.40
23499;DHT22;11926;48.120;11.562;2022-09-09T08:21:44;18.30;90.30
23499;DHT22;11926;48.120;11.562;2022-09-09T08:24:31;18.40;90.30
23499;DHT22;11926;48.120;11.562;2022-09-09T08:27:19;18.50;90.10
23499;DHT22;11926;48.120;11.562;2022-09-09T08:30:06;18.60;90.10
23499;DHT22;11926;48.120;11.562;2022-09-09T08:32:55;18.60;89.40
23499;DHT22;11926;48.120;11.562;2022-09-09T08:35:50;18.70;89.30
23499;DHT22;11926;48.120;11.562;2022-09-09T08:38:39;18.80;89.00
23499;DHT22;11926;48.120;11.562;2022-09-09T08:41:36;18.80;88.70
23499;DHT22;11926;48.120;11.562;2022-09-09T08:44:37;18.90;88.80
23499;DHT22;11926;48.120;11.562;2022-09-09T08:47:42;19.00;88.90
23499;DHT22;11926;48.120;11.562;2022-09-09T08:50:37;19.10;88.70
23499;DHT22;11926;48.120;11.562;2022-09-09T08:53:39;19.10;89.10
23499;DHT22;11926;48.120;11.562;2022-09-09T08:56:31;19.10;89.80
23499;DHT22;11926;48.120;11.562;2022-09-09T08:59:20;19.10;89.60
23499;DHT22;11926;48.120;11.562;2022-09-09T09:02:15;19.20;89.80
23499;DHT22;11926;48.120;11.562;2022-09-09T09:05:15;19.10;90.00
23499;DHT22;11926;48.120;11.562;2022-09-09T09:08:11;19.20;90.30
23499;DHT22;11926;48.120;11.562;2022-09-09T09:11:02;19.30;90.40
23499;DHT22;11926;48.120;11.562;2022-09-09T09:13:53;19.30;90.10
23499;DHT22;11926;48.120;11.562;2022-09-09T09:16:48;19.30;90.20
23499;DHT22;11926;48.120;11.562;2022-09-09T09:19:41;19.40;90.10
23499;DHT22;11926;48.120;11.562;2022-09-09T09:22:47;19.40;90.00
23499;DHT22;11926;48.120;11.562;2022-09-09T09:25:39;19.40;89.70
23499;DHT22;11926;48.120;11.562;2022-09-09T09:28:31;19.50;89.10
23499;DHT22;11926;48.120;11.562;2022-09-09T09:31:26;19.50;89.60
23499;DHT22;11926;48.120;11.562;2022-09-09T09:34:13;19.50;89.10
23499;DHT22;11926;48.120;11.562;2022-09-09T09:37:01;19.60;89.10
23499;DHT22;11926;48.120;11.562;2022-09-09T09:40:09;19.70;89.40
23499;DHT22;11926;48.120;11.562;2022-09-09T09:43:00;19.70;89.20
23499;DHT22;11926;48.120;11.562;2022-09-09T09:45:49;19.80;89.70
23499;DHT22;11926;48.120;11.562;2022-09-09T09:48:58;19.80;89.20
23499;DHT22;11926;48.120;11.562;2022-09-09T09:51:47;19.80;88.80
23499;DHT22;11926;48.120;11.562;2022-09-09T09:54:39;19.80;88.80
23499;DHT22;11926;48.120;11.562;2022-09-09T09:57:30;19.80;88.60
23499;DHT22;11926;48.120;11.562;2022-09-09T10:00:24;19.90;88.80
23499;DHT22;11926;48.120;11.562;2022-09-09T10:03:24;19.90;88.00
23499;DHT22;11926;48.120;11.562;2022-09-09T10:06:14;19.80;87.80
23499;DHT22;11926;48.120;11.562;2022-09-09T10:09:02;19.80;87.70
23499;DHT22;11926;48.120;11.562;2022-09-09T10:11:57;19.80;88.10
23499;DHT22;11926;48.120;11.562;2022-09-09T10:14:54;19.80;87.50
23499;DHT22;11926;48.120;11.562;2022-09-09T10:17:54;19.80;87.00
23499;DHT22;11926;48.120;11.562;2022-09-09T10:20:52;19.70;87.00
23499;DHT22;11926;48.120;11.562;2022-09-09T10:23:54;19.70;86.60
23499;DHT22;11926;48.120;11.562;2022-09-09T10:26:50;19.70;85.90
23499;DHT22;11926;48.120;11.562;2022-09-09T10:29:49;19.60;86.00
23499;DHT22;11926;48.120;11.562;2022-09-09T10:32:47;19.60;86.20
23499;DHT22;11926;48.120;11.562;2022-09-09T10:35:43;19.60;86.70
23499;DHT22;11926;48.120;11.562;2022-09-09T10:38:39;19.60;86.50
23499;DHT22;11926;48.120;11.562;2022-09-09T10:41:44;19.70;87.00
23499;DHT22;11926;48.120;11.562;2022-09-09T10:44:46;19.70;86.10
23499;DHT22;11926;48.120;11.562;2022-09-09T10:50:53;19.70;86.00
23499;DHT22;11926;48.120;11.562;2022-09-09T10:54:01;19.80;85.20
23499;DHT22;11926;48.120;11.562;2022-09-09T10:56:55;19.80;85.00
23499;DHT22;11926;48.120;11.562;2022-09-09T10:59:48;19.80;84.80
23499;DHT22;11926;48.120;11.562;2022-09-09T11:02:38;19.80;85.40
23499;DHT22;11926;48.120;11.562;2022-09-09T11:05:29;19.90;85.20
23499;DHT22;11926;48.120;11.562;2022-09-09T11:08:22;20.00;85.80
23499;DHT22;11926;48.120;11.562;2022-09-09T11:11:15;20.10;85.00
23499;DHT22;11926;48.120;11.562;2022-09-09T11:14:12;20.20;84.40
23499;DHT22;11926;48.120;11.562;2022-09-09T11:17:04;20.30;83.40
23499;DHT22;11926;48.120;11.562;2022-09-09T11:19:53;20.40;83.10
23499;DHT22;11926;48.120;11.562;2022-09-09T11:22:46;20.50;82.80
23499;DHT22;11926;48.120;11.562;2022-09-09T11:25:39;20.60;82.70
23499;DHT22;11926;48.120;11.562;2022-09-09T11:28:35;20.70;82.60
23499;DHT22;11926;48.120;11.562;2022-09-09T11:31:44;20.80;82.40
23499;DHT22;11926;48.120;11.562;2022-09-09T11:34:44;20.90;82.60
23499;DHT22;11926;48.120;11.562;2022-09-09T11:37:53;21.00;81.90
23499;DHT22;11926;48.120;11.562;2022-09-09T11:40:43;21.10;82.80
23499;DHT22;11926;48.120;11.562;2022-09-09T11:43:38;21.20;80.70
23499;DHT22;11926;48.120;11.562;2022-09-09T11:46:33;21.20;79.90
23499;DHT22;11926;48.120;11.562;2022-09-09T11:49:27;21.30;80.10
23499;DHT22;11926;48.120;11.562;2022-09-09T11:52:23;21.40;79.60
23499;DHT22;11926;48.120;11.562;2022-09-09T11:55:25;21.40;78.50
23499;DHT22;11926;48.120;11.562;2022-09-09T11:58:18;21.40;78.00
23499;DHT22;11926;48.120;11.562;2022-09-09T12:01:15;21.30;77.30
23499;DHT22;11926;48.120;11.562;2022-09-09T12:04:21;21.30;77.50
23499;DHT22;11926;48.120;11.562;2022-09-09T12:07:31;21.30;77.10
23499;DHT22;11926;48.120;11.562;2022-09-09T12:10:22;21.40;76.40
23499;DHT22;11926;48.120;11.562;2022-09-09T12:13:19;21.40;76.30
23499;DHT22;11926;48.120;11.562;2022-09-09T12:16:30;21.40;76.50
23499;DHT22;11926;48.120;11.562;2022-09-09T12:19:20;21.40;76.30
23499;DHT22;11926;48.120;11.562;2022-09-09T12:22:13;21.50;76.10
23499;DHT22;11926;48.120;11.562;2022-09-09T12:25:12;21.40;76.30
23499;DHT22;11926;48.120;11.562;2022-09-09T12:28:11;21.50;76.00
23499;DHT22;11926;48.120;11.562;2022-09-09T12:31:08;21.60;75.20
23499;DHT22;11926;48.120;11.562;2022-09-09T12:34:06;21.70;75.30
23499;DHT22;11926;48.120;11.562;2022-09-09T12:37:03;21.80;74.40
23499;DHT22;11926;48.120;11.562;2022-09-09T12:39:55;21.90;74.80
23499;DHT22;11926;48.120;11.562;2022-09-09T12:42:42;22.00;74.70
23499;DHT22;11926;48.120;11.562;2022-09-09T12:45:31;22.00;73.90
23499;DHT22;11926;48.120;11.562;2022-09-09T12:48:27;22.00;73.90
23499;DHT22;11926;48.120;11.562;2022-09-09T12:51:21;22.10;73.90
23499;DHT22;11926;48.120;11.562;2022-09-09T12:54:13;22.20;74.10
23499;DHT22;11926;48.120;11.562;2022-09-09T12:57:01;22.20;74.60
23499;DHT22;11926;48.120;11.562;2022-09-09T12:59:48;22.30;74.30
23499;DHT22;11926;48.120;11.562;2022-09-09T13:02:35;22.30;73.80
23499;DHT22;11926;48.120;11.562;2022-09-09T13:05:24;22.30;74.30
23499;DHT22;11926;48.120;11.562;2022-09-09T13:08:13;22.30;74.30
23499;DHT22;11926;48.120;11.562;2022-09-09T13:11:03;22.30;74.20
23499;DHT22;11926;48.120;11.562;2022-09-09T13:13:53;22.30;73.70
23499;DHT22;11926;48.120;11.562;2022-09-09T13:16:41;22.20;73.70
23499;DHT22;11926;48.120;11.562;2022-09-09T13:19:30;22.20;73.50
23499;DHT22;11926;48.120;11.562;2022-09-09T13:22:26;22.20;73.60
23499;DHT22;11926;48.120;11.562;2022-09-09T13:25:20;22.20;73.60
23499;DHT22;11926;48.120;11.562;2022-09-09T13:28:20;22.20;73.90
23499;DHT22;11926;48.120;11.562;2022-09-09T13:31:21;22.20;73.70
23499;DHT22;11926;48.120;11.562;2022-09-09T13:34:12;22.20;73.00
23499;DHT22;11926;48.120;11.562;2022-09-09T13:37:03;22.20;73.00
23499;DHT22;11926;48.120;11.562;2022-09-09T13:39:54;22.20;73.90
23499;DHT22;11926;48.120;11.562;2022-09-09T13:42:42;22.30;73.30
23499;DHT22;11926;48.120;11.562;2022-09-09T13:45:29;22.30;73.60
23499;DHT22;11926;48.120;11.562;2022-09-09T13:48:18;22.30;73.00
23499;DHT22;11926;48.120;11.562;2022-09-09T13:54:10;22.30;72.80
23499;DHT22;11926;48.120;11.562;2022-09-09T13:56:58;22.20;72.50
23499;DHT22;11926;48.120;11.562;2022-09-09T13:59:47;22.20;72.90
23499;DHT22;11926;48.120;11.562;2022-09-09T14:02:51;22.20;73.10
23499;DHT22;11926;48.120;11.562;2022-09-09T14:05:40;22.10;72.90
23499;DHT22;11926;48.120;11.562;2022-09-09T14:08:28;22.10;72.80
23499;DHT22;11926;48.120;11.562;2022-09-09T14:11:24;22.10;72.50
23499;DHT22;11926;48.120;11.562;2022-09-09T14:14:13;22.10;72.70
23499;DHT22;11926;48.120;11.562;2022-09-09T14:17:00;22.00;72.10
23499;DHT22;11926;48.120;11.562;2022-09-09T14:19:52;21.90;72.00
23499;DHT22;11926;48.120;11.562;2022-09-09T14:22:40;21.80;71.90
23499;DHT22;11926;48.120;11.562;2022-09-09T14:25:27;21.70;72.50
23499;DHT22;11926;48.120;11.562;2022-09-09T14:28:15;21.60;72.60
23499;DHT22;11926;48.120;11.562;2022-09-09T14:31:12;21.60;72.40
23499;DHT22;11926;48.120;11.562;2022-09-09T14:34:00;21.50;72.60
23499;DHT22;11926;48.120;11.562;2022-09-09T14:36:47;21.40;73.10
23499;DHT22;11926;48.120;11.562;2022-09-09T14:39:35;21.40;73.30
23499;DHT22;11926;48.120;11.562;2022-09-09T14:42:22;21.40;74.20
23499;DHT22;11926;48.120;11.562;2022-09-09T14:45:10;21.40;73.20
23499;DHT22;11926;48.120;11.562;2022-09-09T14:47:59;21.40;73.50
23499;DHT22;11926;48.120;11.562;2022-09-09T14:50:46;21.40;73.70
23499;DHT22;11926;48.120;11.562;2022-09-09T14:53:33;21.40;74.00
23499;DHT22;11926;48.120;11.562;2022-09-09T14:56:22;21.40;73.80
23499;DHT22;11926;48.120;11.562;2022-09-09T14:59:10;21.40;73.60
23499;DHT22;11926;48.120;11.562;2022-09-09T15:01:57;21.30;73.50
23499;DHT22;11926;48.120;11.562;2022-09-09T15:04:45;21.30;73.30
23499;DHT22;11926;48.120;11.562;2022-09-09T15:07:32;21.30;73.30
23499;DHT22;11926;48.120;11.562;2022-09-09T15:10:20;21.30;73.70
23499;DHT22;11926;48.120;11.562;2022-09-09T15:13:07;21.30;73.60
23499;DHT22;11926;48.120;11.562;2022-09-09T15:15:54;21.30;73.10
23499;DHT22;11926;48.120;11.562;2022-09-09T15:18:44;21.20;73.10
23499;DHT22;11926;48.120;11.562;2022-09-09T15:21:35;21.10;73.40
23499;DHT22;11926;48.120;11.562;2022-09-09T15:24:23;21.10;73.10
23499;DHT22;11926;48.120;11.562;2022-09-09T15:27:12;21.20;73.60
23499;DHT22;11926;48.120;11.562;2022-09-09T15:30:00;21.10;73.10
23499;DHT22;11926;48.120;11.562;2022-09-09T15:32:47;21.10;72.90
23499;DHT22;11926;48.120;11.562;2022-09-09T15:35:34;21.10;73.00
23499;DHT22;11926;48.120;11.562;2022-09-09T15:38:23;21.20;73.10
23499;DHT22;11926;48.120;11.562;2022-09-09T15:41:10;21.20;72.80
23499;DHT22;11926;48.120;11.562;2022-09-09T15:43:58;21.10;72.60
23499;DHT22;11926;48.120;11.562;2022-09-09T15:46:48;21.00;73.30
23499;DHT22;11926;48.120;11.562;2022-09-09T15:49:36;21.00;73.30
23499;DHT22;11926;48.120;11.562;2022-09-09T15:52:24;21.00;73.50
23499;DHT22;11926;48.120;11.562;2022-09-09T15:55:12;21.00;73.40
23499;DHT22;11926;48.120;11.562;2022-09-09T15:57:59;21.00;73.50
23499;DHT22;11926;48.120;11.562;2022-09-09T16:00:47;21.00;73.20
23499;DHT22;11926;48.120;11.562;2022-09-09T16:03:34;21.10;72.50
23499;DHT22;11926;48.120;11.562;2022-09-09T16:06:30;21.00;71.80
23499;DHT22;11926;48.120;11.562;2022-09-09T16:09:19;21.00;72.10
23499;DHT22;11926;48.120;11.562;2022-09-09T16:12:07;20.90;72.30
23499;DHT22;11926;48.120;11.562;2022-09-09T16:14:57;20.90;72.30
23499;DHT22;11926;48.120;11.562;2022-09-09T16:17:45;20.80;72.30
23499;DHT22;11926;48.120;11.562;2022-09-09T16:20:32;20.80;72.70
23499;DHT22;11926;48.120;11.562;2022-09-09T16:23:19;20.80;72.70
23499;DHT22;11926;48.120;11.562;2022-09-09T16:26:07;20.80;72.30
23499;DHT22;11926;48.120;11.562;2022-09-09T16:28:56;20.80;72.20
23499;DHT22;11926;48.120;11.562;2022-09-09T16:31:45;20.80;72.10
23499;DHT22;11926;48.120;11.562;2022-09-09T16:34:33;20.80;72.30
23499;DHT22;11926;48.120;11.562;2022-09-09T16:37:20;20.90;72.70
23499;DHT22;11926;48.120;11.562;2022-09-09T16:40:08;20.90;71.80
23499;DHT22;11926;48.120;11.562;2022-09-09T16:42:55;20.90;72.60
23499;DHT22;11926;48.120;11.562;2022-09-09T16:45:45;20.90;71.40
23499;DHT22;11926;48.120;11.562;2022-09-09T16:48:33;20.80;72.00
23499;DHT22;11926;48.120;11.562;2022-09-09T16:51:21;20.70;71.70
23499;DHT22;11926;48.120;11.562;2022-09-09T16:54:10;20.60;71.90
23499;DHT22;11926;48.120;11.562;2022-09-09T16:56:59;20.60;72.70
23499;DHT22;11926;48.120;11.562;2022-09-09T16:59:46;20.60;72.20
23499;DHT22;11926;48.120;11.562;2022-09-09T17:02:35;20.50;72.10
23499;DHT22;11926;48.120;11.562;2022-09-09T17:05:22;20.50;72.60
23499;DHT22;11926;48.120;11.562;2022-09-09T17:08:11;20.40;72.70
23499;DHT22;11926;48.120;11.562;2022-09-09T17:10:57;20.30;72.50
23499;DHT22;11926;48.120;11.562;2022-09-09T17:13:45;20.20;73.10
23499;DHT22;11926;48.120;11.562;2022-09-09T17:16:33;20.20;73.50
23499;DHT22;11926;48.120;11.562;2022-09-09T17:19:22;20.00;73.60
23499;DHT22;11926;48.120;11.562;2022-09-09T17:22:09;20.00;74.10
23499;DHT22;11926;48.120;11.562;2022-09-09T17:25:02;20.00;74.20
23499;DHT22;11926;48.120;11.562;2022-09-09T17:27:49;20.00;74.60
23499;DHT22;11926;48.120;11.562;2022-09-09T17:30:36;19.90;74.70
23499;DHT22;11926;48.120;11.562;2022-09-09T17:33:23;19.90;74.90
23499;DHT22;11926;48.120;11.562;2022-09-09T17:36:16;19.80;75.90
23499;DHT22;11926;48.120;11.562;2022-09-09T17:39:04;19.80;76.20
23499;DHT22;11926;48.120;11.562;2022-09-09T17:41:52;19.70;76.70
23499;DHT22;11926;48.120;11.562;2022-09-09T17:44:40;19.60;77.10
23499;DHT22;11926;48.120;11.562;2022-09-09T17:47:27;19.60;77.30
23499;DHT22;11926;48.120;11.562;2022-09-09T17:50:16;19.50;77.30
23499;DHT22;11926;48.120;11.562;2022-09-09T17:53:05;19.40;77.60